Time;durP1;ratioP1;P1;durP2;ratioP2;P2;SDS_P1;SDS_P2;PMS_P1;PMS_P2;Temp;Humidity;BMP_temperature;BMP_pressure;BME280_temperature;BME280_humidity;BME280_pressure;Samples;Min_cycle;Max_cycle;Signal;HPM_P1;HPM_P2
2021/07/24 00:00:34;;;;;;;;;14.25;14.25;;;;;26.25;47.28;100398.72;5061283;28;45456;-62
2021/07/24 00:02:59;;;;;;;;;17.25;13.75;;;;;26.24;47.45;100381.69;5061399;28;45345;-63
2021/07/24 00:05:24;;;;;;;;;17.00;15.00;;;;;26.25;47.80;100379.81;5061128;28;45520;-59
2021/07/24 00:07:50;;;;;;;;;17.75;16.75;;;;;26.20;47.80;100369.59;5060711;28;45502;-60
2021/07/24 00:10:15;;;;;;;;;18.75;15.00;;;;;26.19;48.15;100380.63;5061107;28;45993;-63
2021/07/24 00:12:41;;;;;;;;;18.75;15.50;;;;;26.19;47.79;100377.91;5061147;28;45427;-58
2021/07/24 00:15:07;;;;;;;;;17.25;16.00;;;;;26.19;47.83;100384.16;5059121;28;45448;-56
2021/07/24 00:17:32;;;;;;;;;15.25;13.50;;;;;26.18;48.04;100385.19;5059107;28;45619;-59
2021/07/24 00:19:58;;;;;;;;;19.75;16.25;;;;;26.20;47.61;100380.41;5058786;28;45696;-58
2021/07/24 00:22:23;;;;;;;;;17.25;15.75;;;;;26.22;47.43;100378.34;5063462;28;45385;-58
2021/07/24 00:24:49;;;;;;;;;15.00;14.00;;;;;26.20;48.08;100369.59;5058761;28;45545;-58
2021/07/24 00:27:14;;;;;;;;;15.50;14.25;;;;;26.21;46.97;100354.25;5059120;28;45509;-59
2021/07/24 00:29:40;;;;;;;;;17.00;15.50;;;;;26.19;47.83;100365.25;5061931;28;46003;-58
2021/07/24 00:32:05;;;;;;;;;14.75;13.75;;;;;26.18;47.04;100360.88;5064473;28;45247;-58
2021/07/24 00:34:31;;;;;;;;;13.50;13.00;;;;;26.21;47.13;100373.97;5060298;28;45207;-58
2021/07/24 00:36:58;;;;;;;;;13.00;11.75;;;;;26.23;47.22;100362.97;5061154;28;45461;-58
2021/07/24 00:39:23;;;;;;;;;18.25;13.75;;;;;26.24;47.18;100370.88;5049122;28;45311;-58
2021/07/24 00:41:52;;;;;;;;;19.25;17.00;;;;;26.24;47.33;100378.97;5057966;28;45513;-58
2021/07/24 00:44:18;;;;;;;;;19.50;16.00;;;;;26.22;47.47;100372.94;5060987;28;45241;-58
2021/07/24 00:46:44;;;;;;;;;15.25;15.25;;;;;26.19;46.83;100372.50;5058642;28;45617;-58
2021/07/24 00:49:11;;;;;;;;;14.75;14.00;;;;;26.17;46.73;100370.03;5060534;28;46006;-58
2021/07/24 00:51:38;;;;;;;;;20.75;15.50;;;;;26.19;46.53;100376.03;5060720;28;45242;-58
2021/07/24 00:54:04;;;;;;;;;18.25;17.00;;;;;26.20;47.22;100383.09;5060934;28;45320;-58
2021/07/24 00:56:30;;;;;;;;;19.00;17.00;;;;;26.23;46.81;100389.97;5060921;28;45376;-58
2021/07/24 00:58:56;;;;;;;;;19.00;17.75;;;;;26.24;46.41;100389.78;5060761;28;46234;-58
2021/07/24 01:01:21;;;;;;;;;15.25;15.25;;;;;26.25;46.52;100388.75;5041251;28;45337;-58
2021/07/24 01:03:47;;;;;;;;;18.50;16.00;;;;;26.24;46.33;100397.88;5052131;28;45496;-58
2021/07/24 01:06:14;;;;;;;;;19.50;16.00;;;;;26.25;46.76;100398.72;5060577;28;45238;-58
2021/07/24 01:08:39;;;;;;;;;15.75;14.50;;;;;26.25;46.82;100396.84;5060681;28;45349;-58
2021/07/24 01:11:05;;;;;;;;;19.00;14.75;;;;;26.27;46.91;100375.88;5060778;28;45206;-58
2021/07/24 01:13:31;;;;;;;;;12.75;12.75;;;;;26.28;46.67;100365.91;5060815;28;45255;-58
2021/07/24 01:15:57;;;;;;;;;13.25;13.25;;;;;26.28;46.35;100363.19;5025142;28;45273;-58
2021/07/24 01:18:22;;;;;;;;;20.50;17.00;;;;;26.29;46.59;100356.75;5051660;28;45307;-58
2021/07/24 01:20:49;;;;;;;;;17.50;17.00;;;;;26.30;46.98;100353.03;5060277;28;45309;-59
2021/07/24 01:23:15;;;;;;;;;16.75;14.00;;;;;26.30;46.59;100355.72;5060854;28;45386;-58
2021/07/24 01:25:47;;;;;;;;;15.25;13.00;;;;;26.27;46.78;100356.13;5060423;28;45443;-58
2021/07/24 01:28:13;;;;;;;;;19.25;16.25;;;;;26.26;47.31;100343.66;5060679;28;46092;-58
2021/07/24 01:30:40;;;;;;;;;18.50;17.50;;;;;26.26;47.01;100349.91;5060325;28;45387;-58
2021/07/24 01:33:06;;;;;;;;;14.25;14.25;;;;;26.24;46.73;100367.34;5060688;28;45332;-58
2021/07/24 01:35:31;;;;;;;;;13.75;12.50;;;;;26.24;47.12;100375.44;5059940;28;45706;-58
2021/07/24 01:37:57;;;;;;;;;15.00;14.00;;;;;26.23;47.06;100376.47;5060391;28;46365;-58
2021/07/24 01:40:22;;;;;;;;;16.25;13.75;;;;;26.21;47.36;100376.66;5060389;28;45234;-58
2021/07/24 01:42:48;;;;;;;;;14.00;13.50;;;;;26.17;46.96;100388.91;5060380;28;45333;-58
2021/07/24 01:45:13;;;;;;;;;14.75;14.50;;;;;26.14;48.30;100408.19;5060283;28;45536;-58
2021/07/24 01:47:38;;;;;;;;;12.50;11.75;;;;;26.07;49.68;100399.28;5060256;28;45343;-58
2021/07/24 01:52:49;;;;;;;;;11.00;9.75;;;;;25.91;50.86;100410.38;5060319;28;45173;-58
2021/07/24 01:55:19;;;;;;;;;6.50;6.50;;;;;25.85;50.81;100420.09;5060411;28;45491;-57
2021/07/24 01:57:47;;;;;;;;;8.25;8.25;;;;;25.78;51.57;100428.16;5061490;28;45393;-58
2021/07/24 02:00:13;;;;;;;;;9.00;7.00;;;;;25.69;52.38;100415.81;5063643;28;45164;-58
2021/07/24 02:02:38;;;;;;;;;11.00;10.50;;;;;25.62;52.92;100404.16;5063551;28;45240;-58
2021/07/24 02:05:05;;;;;;;;;9.25;7.00;;;;;25.53;52.94;100397.25;5063627;28;45303;-58
2021/07/24 02:07:34;;;;;;;;;6.50;6.50;;;;;25.50;53.17;100416.50;5063365;28;45436;-58
2021/07/24 02:09:59;;;;;;;;;10.00;8.75;;;;;25.44;53.36;100415.44;5053387;28;45343;-58
2021/07/24 02:12:24;;;;;;;;;7.75;7.00;;;;;25.36;53.56;100406.63;5059414;28;45477;-58
2021/07/24 02:14:50;;;;;;;;;8.50;7.75;;;;;25.29;53.81;100420.91;5063626;28;45427;-58
2021/07/24 02:17:16;;;;;;;;;11.00;7.75;;;;;25.25;54.55;100424.19;5063362;28;46055;-57
2021/07/24 02:19:41;;;;;;;;;8.00;7.00;;;;;25.22;54.48;100421.88;5063147;28;45338;-57
2021/07/24 02:22:07;;;;;;;;;7.25;6.75;;;;;25.20;54.51;100424.78;5048914;28;45404;-58
2021/07/24 02:24:32;;;;;;;;;10.25;9.75;;;;;25.16;55.04;100430.75;5063413;28;45462;-58
2021/07/24 02:26:57;;;;;;;;;11.50;10.50;;;;;25.13;55.12;100434.66;5063201;28;45385;-58
2021/07/24 02:29:23;;;;;;;;;12.00;9.00;;;;;25.10;55.48;100428.81;5063414;28;45167;-58
2021/07/24 02:31:48;;;;;;;;;10.25;8.00;;;;;25.07;55.40;100421.94;5063198;28;45298;-59
2021/07/24 02:34:14;;;;;;;;;8.75;8.50;;;;;25.05;55.03;100424.00;5063038;28;46755;-58
2021/07/24 02:36:39;;;;;;;;;10.00;9.00;;;;;25.02;55.28;100435.97;5062948;28;45438;-58
2021/07/24 02:39:05;;;;;;;;;8.50;8.00;;;;;24.99;55.52;100436.34;5063169;28;45261;-58
2021/07/24 02:41:30;;;;;;;;;9.75;7.75;;;;;25.00;54.86;100434.50;5063242;28;45313;-58
2021/07/24 02:43:56;;;;;;;;;11.50;8.00;;;;;24.99;55.08;100435.53;5063100;28;45492;-57
2021/07/24 02:46:21;;;;;;;;;8.50;8.25;;;;;24.99;55.36;100435.53;5062869;28;45978;-58
2021/07/24 02:48:47;;;;;;;;;7.75;7.00;;;;;24.99;54.61;100432.84;5062777;28;45252;-58
2021/07/24 02:51:15;;;;;;;;;8.25;8.00;;;;;24.97;55.26;100441.09;5063154;28;45276;-58
2021/07/24 02:53:41;;;;;;;;;9.25;6.75;;;;;24.94;55.36;100430.69;5063072;28;46260;-57
2021/07/24 02:56:07;;;;;;;;;8.50;7.00;;;;;24.90;55.16;100429.44;5062360;28;45314;-58
2021/07/24 02:58:32;;;;;;;;;6.00;6.00;;;;;24.88;55.41;100425.22;5062862;28;45230;-58
2021/07/24 03:00:57;;;;;;;;;8.50;5.75;;;;;24.88;54.96;100415.28;5062809;28;45247;-58
2021/07/24 03:03:23;;;;;;;;;6.00;5.25;;;;;24.85;55.20;100407.59;5062963;28;45176;-58
2021/07/24 03:05:49;;;;;;;;;6.00;5.00;;;;;24.80;54.77;100412.72;5062235;28;45900;-58
2021/07/24 03:08:15;;;;;;;;;5.50;5.00;;;;;24.78;54.75;100414.78;5062866;28;45291;-58
2021/07/24 03:10:40;;;;;;;;;4.50;4.50;;;;;24.74;54.78;100422.41;5062023;28;45161;-58
2021/07/24 03:13:06;;;;;;;;;4.00;4.00;;;;;24.69;54.74;100422.16;5062793;28;45444;-58
2021/07/24 03:15:31;;;;;;;;;4.25;4.00;;;;;24.63;54.61;100428.28;5062533;28;45667;-58
2021/07/24 03:17:56;;;;;;;;;6.00;4.25;;;;;24.61;55.08;100438.44;5062695;28;45211;-58
2021/07/24 03:20:22;;;;;;;;;7.25;5.25;;;;;24.60;54.50;100449.41;5062500;28;45505;-58
2021/07/24 03:22:47;;;;;;;;;6.00;4.75;;;;;24.56;54.49;100451.63;5062614;28;45480;-58
2021/07/24 03:25:13;;;;;;;;;5.50;3.50;;;;;24.55;54.93;100460.72;5062151;28;45429;-58
2021/07/24 03:27:38;;;;;;;;;5.00;5.00;;;;;24.54;54.48;100466.31;5062489;28;45326;-58
2021/07/24 03:30:05;;;;;;;;;6.00;5.50;;;;;24.48;54.63;100460.63;5062500;28;45350;-58
2021/07/24 03:32:30;;;;;;;;;5.25;4.75;;;;;24.46;54.51;100461.84;5062459;28;45298;-58
2021/07/24 03:34:56;;;;;;;;;5.25;4.50;;;;;24.43;54.55;100454.16;5047175;28;46809;-58
2021/07/24 03:37:23;;;;;;;;;5.75;5.00;;;;;24.41;54.50;100454.34;5062384;28;45418;-58
2021/07/24 03:39:48;;;;;;;;;4.25;4.25;;;;;24.37;54.26;100468.38;5062264;28;45220;-59
2021/07/24 03:42:14;;;;;;;;;5.75;5.00;;;;;24.30;54.45;100475.50;5062253;28;45366;-58
2021/07/24 03:44:39;;;;;;;;;3.00;3.00;;;;;24.23;55.07;100478.09;5061881;28;45856;-58
2021/07/24 03:47:05;;;;;;;;;5.75;5.25;;;;;24.18;54.88;100494.81;5062141;28;45227;-58
2021/07/24 03:49:31;;;;;;;;;5.00;4.25;;;;;24.13;54.88;100501.75;5061788;28;45269;-58
2021/07/24 03:51:56;;;;;;;;;7.00;5.00;;;;;24.13;55.31;100504.44;5062319;28;45235;-58
2021/07/24 03:54:22;;;;;;;;;4.00;4.00;;;;;24.12;55.37;100509.00;5061633;28;46672;-60
2021/07/24 03:56:47;;;;;;;;;6.00;5.00;;;;;24.13;55.46;100517.91;5062211;28;45580;-58
2021/07/24 03:59:12;;;;;;;;;5.50;5.50;;;;;24.14;55.09;100531.16;5060580;28;45461;-58
2021/07/24 04:01:41;;;;;;;;;7.00;5.00;;;;;24.13;55.33;100534.88;5062319;28;45260;-58
2021/07/24 04:04:06;;;;;;;;;5.75;4.75;;;;;24.10;54.94;100532.56;5061320;28;45474;-58
2021/07/24 04:06:31;;;;;;;;;4.00;4.00;;;;;24.07;54.63;100545.53;5061486;28;45472;-58
2021/07/24 04:08:57;;;;;;;;;5.00;5.00;;;;;24.06;54.93;100549.25;5046974;28;45453;-58
2021/07/24 04:11:23;;;;;;;;;5.00;4.75;;;;;24.04;54.82;100554.84;5061885;28;45442;-58
2021/07/24 04:13:49;;;;;;;;;4.00;4.00;;;;;24.01;54.21;100549.78;5061185;28;45212;-58
2021/07/24 04:16:14;;;;;;;;;4.50;3.25;;;;;23.95;54.27;100551.38;5053443;28;45364;-58
2021/07/24 04:18:40;;;;;;;;;5.00;4.00;;;;;23.88;54.34;100557.69;5040486;28;45340;-58
2021/07/24 04:21:05;;;;;;;;;3.75;3.00;;;;;23.89;54.35;100568.25;5052336;28;45327;-58
2021/07/24 04:23:31;;;;;;;;;6.25;5.25;;;;;23.87;54.27;100566.78;5054933;28;45211;-58
2021/07/24 04:25:56;;;;;;;;;5.50;4.00;;;;;23.86;54.38;100549.78;5061469;28;45413;-58
2021/07/24 04:28:22;;;;;;;;;4.50;4.25;;;;;23.85;54.73;100563.41;5061531;28;45516;-58
2021/07/24 04:30:48;;;;;;;;;5.50;4.00;;;;;23.85;54.60;100566.09;5061455;28;45339;-58
2021/07/24 04:33:13;;;;;;;;;5.25;4.75;;;;;23.84;54.99;100578.72;5061129;28;45370;-58
2021/07/24 04:35:46;;;;;;;;;6.00;4.00;;;;;23.82;55.10;100553.00;5060837;28;45408;-58
2021/07/24 04:38:11;;;;;;;;;5.00;5.00;;;;;23.80;55.44;100553.19;5060351;28;45368;-58
2021/07/24 04:40:37;;;;;;;;;4.50;4.50;;;;;23.78;55.11;100568.69;5061590;28;45242;-58
2021/07/24 04:43:03;;;;;;;;;4.25;4.00;;;;;23.76;55.27;100569.88;5060961;28;45989;-58
2021/07/24 04:45:28;;;;;;;;;4.25;4.00;;;;;23.76;55.25;100564.50;5061424;28;45544;-58
2021/07/24 04:47:54;;;;;;;;;5.50;5.00;;;;;23.75;55.73;100570.88;5061127;28;45378;-58
2021/07/24 04:50:19;;;;;;;;;5.00;5.00;;;;;23.74;55.58;100566.53;5061173;28;45331;-58
2021/07/24 04:52:45;;;;;;;;;3.00;3.00;;;;;23.76;55.29;100567.19;5060759;28;45531;-58
2021/07/24 04:55:10;;;;;;;;;8.00;6.00;;;;;23.74;55.06;100571.91;5061169;28;45469;-58
2021/07/24 04:57:36;;;;;;;;;6.00;6.00;;;;;23.73;55.36;100573.78;5046332;28;45319;-58
2021/07/24 05:00:01;;;;;;;;;8.50;6.25;;;;;23.68;55.49;100581.53;5052674;28;45501;-58
2021/07/24 05:02:27;;;;;;;;;4.75;3.75;;;;;23.62;55.43;100582.25;5054735;28;45310;-58
2021/07/24 05:04:52;;;;;;;;;7.50;6.00;;;;;23.57;55.47;100580.06;5060620;28;45346;-58
2021/07/24 05:07:19;;;;;;;;;7.00;5.00;;;;;23.53;55.90;100589.50;5060886;28;45489;-58
2021/07/24 05:09:44;;;;;;;;;7.25;5.25;;;;;23.52;56.06;100598.59;5061151;28;45542;-58
2021/07/24 05:12:10;;;;;;;;;6.25;6.25;;;;;23.54;56.38;100601.09;5060613;28;45299;-58
2021/07/24 05:14:35;;;;;;;;;4.50;4.25;;;;;23.54;56.02;100590.34;5047134;28;45287;-59
2021/07/24 05:17:08;;;;;;;;;6.75;6.50;;;;;23.52;56.31;100593.22;5060967;28;45244;-58
2021/07/24 05:19:43;;;;;;;;;6.50;5.00;;;;;23.51;56.06;100593.41;5060895;28;45390;-58
2021/07/24 05:22:10;;;;;;;;;5.00;4.25;;;;;23.52;56.14;100605.81;5060417;28;46175;-58
2021/07/24 05:24:35;;;;;;;;;5.25;4.25;;;;;23.53;56.18;100602.09;5060646;28;45306;-58
2021/07/24 05:27:01;;;;;;;;;5.50;5.25;;;;;23.54;56.23;100607.34;5060604;28;45241;-58
2021/07/24 05:29:27;;;;;;;;;9.00;7.00;;;;;23.57;56.48;100606.97;5057979;28;45394;-58
2021/07/24 05:31:52;;;;;;;;;5.00;4.50;;;;;23.61;55.85;100616.38;5060455;28;46415;-58
2021/07/24 05:34:18;;;;;;;;;5.50;5.00;;;;;23.61;55.70;100611.00;5063373;28;45457;-58
2021/07/24 05:36:43;;;;;;;;;6.00;5.25;;;;;23.63;56.02;100611.66;5064253;28;45432;-58
2021/07/24 05:39:08;;;;;;;;;5.50;5.50;;;;;23.57;55.80;100614.19;5064308;28;45514;-58
2021/07/24 05:41:34;;;;;;;;;5.00;3.25;;;;;23.53;55.78;100619.06;5064060;28;45695;-58
2021/07/24 05:43:59;;;;;;;;;9.25;5.25;;;;;23.51;55.47;100613.03;5063872;28;45308;-58
2021/07/24 05:46:25;;;;;;;;;4.75;4.75;;;;;23.53;55.75;100612.88;5063956;28;45436;-58
2021/07/24 05:48:50;;;;;;;;;6.75;5.75;;;;;23.57;56.00;100608.81;5063904;28;45481;-58
2021/07/24 05:51:16;;;;;;;;;7.00;4.75;;;;;23.61;55.80;100613.69;5063688;28;45905;-58
2021/07/24 05:53:41;;;;;;;;;6.25;5.50;;;;;23.62;55.65;100618.06;5063746;28;45565;-58
2021/07/24 05:56:07;;;;;;;;;8.75;6.00;;;;;23.68;55.95;100614.63;5049174;28;45317;-58
2021/07/24 05:58:32;;;;;;;;;4.50;4.00;;;;;23.72;55.84;100609.75;5064010;28;45699;-58
2021/07/24 06:00:58;;;;;;;;;6.50;6.00;;;;;23.77;55.62;100617.25;5063464;28;45473;-58
2021/07/24 06:03:23;;;;;;;;;7.00;5.50;;;;;23.73;55.07;100610.59;5063565;28;45226;-59
2021/07/24 06:05:49;;;;;;;;;7.25;5.00;;;;;23.70;55.24;100605.56;5063370;28;45149;-58
2021/07/24 06:08:14;;;;;;;;;5.00;5.00;;;;;23.70;54.85;100605.56;5063799;28;45283;-60
2021/07/24 06:10:40;;;;;;;;;8.75;4.75;;;;;23.67;54.82;100606.75;5063451;28;45566;-58
2021/07/24 06:13:05;;;;;;;;;4.50;4.50;;;;;23.66;55.43;100615.84;5063353;28;45454;-58
2021/07/24 06:15:30;;;;;;;;;7.00;5.25;;;;;23.69;55.16;100610.09;5063431;28;45457;-59
2021/07/24 06:17:57;;;;;;;;;6.75;4.75;;;;;23.73;55.11;100611.41;5063950;28;45503;-59
2021/07/24 06:20:22;;;;;;;;;6.50;5.00;;;;;23.79;55.51;100602.66;5063124;28;45257;-58
2021/07/24 06:22:48;;;;;;;;;8.00;6.50;;;;;23.81;55.38;100605.16;5063319;28;45401;-58
2021/07/24 06:25:14;;;;;;;;;5.50;5.25;;;;;23.79;55.21;100601.81;5063245;28;45331;-58
2021/07/24 06:27:42;;;;;;;;;4.00;4.00;;;;;23.80;55.49;100606.16;5063531;28;45324;-58
2021/07/24 06:30:09;;;;;;;;;5.75;5.25;;;;;23.83;55.24;100597.72;5063386;28;46006;-59
2021/07/24 06:32:35;;;;;;;;;9.25;4.75;;;;;23.77;55.55;100599.28;5063318;28;45298;-59
2021/07/24 06:35:00;;;;;;;;;6.50;5.50;;;;;23.72;55.70;100604.38;5062665;28;45393;-59
2021/07/24 06:37:26;;;;;;;;;5.50;3.50;;;;;23.77;55.19;100596.59;5063402;28;45247;-59
2021/07/24 06:39:51;;;;;;;;;7.00;6.00;;;;;23.82;55.35;100596.88;5048447;28;46122;-59
2021/07/24 06:42:17;;;;;;;;;6.00;6.00;;;;;23.85;55.00;100598.38;5062993;28;45224;-58
2021/07/24 06:44:42;;;;;;;;;7.50;4.75;;;;;23.87;54.52;100596.38;5062090;28;45298;-59
2021/07/24 06:47:08;;;;;;;;;7.25;6.00;;;;;23.87;54.67;100605.25;5063173;28;45513;-58
2021/07/24 06:49:33;;;;;;;;;4.50;4.25;;;;;23.79;54.79;100602.66;5062519;28;45516;-58
2021/07/24 06:51:59;;;;;;;;;5.00;4.00;;;;;23.70;54.28;100609.09;5062820;28;45520;-59
2021/07/24 06:54:24;;;;;;;;;5.25;5.00;;;;;23.60;54.30;100605.78;5062840;28;45340;-58
2021/07/24 06:56:50;;;;;;;;;8.25;6.50;;;;;23.59;54.56;100604.94;5063116;28;45575;-58
2021/07/24 06:59:15;;;;;;;;;4.00;4.00;;;;;23.65;54.76;100606.94;5062787;28;45885;-58
2021/07/24 07:01:41;;;;;;;;;4.50;4.00;;;;;23.72;54.51;100606.22;5062726;28;45481;-58
2021/07/24 07:04:06;;;;;;;;;5.00;4.00;;;;;23.79;53.97;100604.50;5062181;28;45473;-59
2021/07/24 07:06:32;;;;;;;;;5.00;4.50;;;;;23.85;54.17;100607.28;5062742;28;45314;-59
2021/07/24 07:08:58;;;;;;;;;3.25;3.25;;;;;23.95;54.18;100602.50;5062188;28;46310;-58
2021/07/24 07:11:25;;;;;;;;;3.00;3.00;;;;;24.00;54.27;100599.25;5062666;28;45290;-58
2021/07/24 07:13:50;;;;;;;;;5.25;5.00;;;;;24.08;53.23;100606.41;5062345;28;45322;-58
2021/07/24 07:16:15;;;;;;;;;3.00;3.00;;;;;24.11;53.40;100606.91;5062276;28;45219;-59
2021/07/24 07:18:41;;;;;;;;;7.00;5.50;;;;;24.07;53.52;100610.13;5062151;28;46010;-59
2021/07/24 07:21:08;;;;;;;;;6.50;4.00;;;;;24.06;52.95;100624.59;5062534;28;45279;-59
2021/07/24 07:23:33;;;;;;;;;4.50;4.00;;;;;24.04;53.17;100619.41;5062469;28;45327;-59
2021/07/24 07:25:59;;;;;;;;;5.00;3.75;;;;;24.03;52.95;100617.75;5062126;28;45435;-58
2021/07/24 07:28:24;;;;;;;;;4.00;4.00;;;;;24.09;53.34;100621.53;5061637;28;45385;-58
2021/07/24 07:30:50;;;;;;;;;5.25;4.00;;;;;24.15;53.20;100624.34;5062508;28;45463;-58
2021/07/24 07:33:15;;;;;;;;;7.00;6.50;;;;;24.19;52.73;100620.28;5060817;28;45434;-59
2021/07/24 07:35:41;;;;;;;;;8.50;7.00;;;;;24.28;53.21;100617.53;5061951;28;45453;-58
2021/07/24 07:38:06;;;;;;;;;4.50;4.00;;;;;24.32;52.77;100625.06;5062179;28;45383;-58
2021/07/24 07:40:36;;;;;;;;;5.50;3.50;;;;;24.32;52.56;100621.50;5061907;28;45377;-59
2021/07/24 07:43:04;;;;;;;;;5.75;4.00;;;;;24.32;52.45;100624.19;5061976;28;45230;-59
2021/07/24 07:45:30;;;;;;;;;3.00;2.75;;;;;24.31;52.33;100626.06;5061988;28;45446;-59
2021/07/24 07:47:55;;;;;;;;;3.25;3.25;;;;;24.35;52.34;100626.56;5061803;28;46445;-59
2021/07/24 07:50:21;;;;;;;;;3.50;3.25;;;;;24.42;51.99;100630.22;5061638;28;45472;-59
2021/07/24 07:52:47;;;;;;;;;6.25;4.25;;;;;24.44;52.51;100625.47;5062041;28;45362;-59
2021/07/24 07:55:12;;;;;;;;;5.25;3.25;;;;;24.52;52.39;100628.06;5062039;28;45294;-59
2021/07/24 07:57:39;;;;;;;;;5.00;4.00;;;;;24.56;52.49;100621.28;5061687;28;45298;-58
2021/07/24 08:00:05;;;;;;;;;6.25;3.25;;;;;24.59;52.02;100615.53;5062079;28;45278;-58
2021/07/24 08:02:31;;;;;;;;;4.75;4.50;;;;;24.64;51.72;100615.81;5061557;28;45233;-59
2021/07/24 08:04:59;;;;;;;;;4.00;4.00;;;;;24.71;52.11;100611.34;5061454;28;45247;-58
2021/07/24 08:07:24;;;;;;;;;5.00;3.25;;;;;24.72;51.60;100613.03;5061496;28;45459;-58
2021/07/24 08:09:50;;;;;;;;;7.50;5.50;;;;;24.69;51.28;100608.00;5061601;28;45306;-58
2021/07/24 08:12:15;;;;;;;;;3.75;3.75;;;;;24.72;51.12;100606.81;5061717;28;45266;-58
2021/07/24 08:14:41;;;;;;;;;14.25;11.25;;;;;24.71;51.38;100605.97;5061586;28;45332;-58
2021/07/24 08:17:07;;;;;;;;;6.00;6.00;;;;;24.72;51.54;100604.09;5061239;28;45423;-58
2021/07/24 08:19:33;;;;;;;;;5.00;4.00;;;;;24.69;51.16;100609.88;5061270;28;45354;-58
2021/07/24 08:21:58;;;;;;;;;4.00;4.00;;;;;24.69;51.43;100610.72;5061614;28;45258;-58
2021/07/24 08:24:24;;;;;;;;;5.25;4.00;;;;;24.68;50.55;100618.97;5061724;28;45529;-61
